sensor_id;sensor_type;location;lat;lon;timestamp;temperature;humidity
21540;DHT22;10931;52.164;5.518;2023-10-19T03:09:40;16.80;73.40
21540;DHT22;10931;52.164;5.518;2023-10-19T03:13:01;16.90;74.20
21540;DHT22;10931;52.164;5.518;2023-10-19T04:13:28;16.80;73.40
21540;DHT22;10931;52.164;5.518;2023-10-19T04:34:34;16.80;73.40
21540;DHT22;10931;52.164;5.518;2023-10-19T04:44:31;16.80;73.40
21540;DHT22;10931;52.164;5.518;2023-10-19T05:06:18;16.90;73.50
21540;DHT22;10931;52.164;5.518;2023-10-19T05:09:05;16.90;73.50
21540;DHT22;10931;52.164;5.518;2023-10-19T05:11:34;16.90;73.50
21540;DHT22;10931;52.164;5.518;2023-10-19T05:14:09;16.90;73.50
21540;DHT22;10931;52.164;5.518;2023-10-19T05:16:56;16.90;73.50
21540;DHT22;10931;52.164;5.518;2023-10-19T05:19:26;16.90;73.50
21540;DHT22;10931;52.164;5.518;2023-10-19T05:21:53;16.80;73.40
21540;DHT22;10931;52.164;5.518;2023-10-19T05:24:28;16.90;73.50
21540;DHT22;10931;52.164;5.518;2023-10-19T05:26:56;16.90;73.50
21540;DHT22;10931;52.164;5.518;2023-10-19T05:29:27;16.90;73.50
21540;DHT22;10931;52.164;5.518;2023-10-19T05:31:54;16.90;73.50
21540;DHT22;10931;52.164;5.518;2023-10-19T05:37:20;16.80;73.50
21540;DHT22;10931;52.164;5.518;2023-10-19T05:40:12;16.90;73.50
21540;DHT22;10931;52.164;5.518;2023-10-19T05:42:59;16.90;73.50
21540;DHT22;10931;52.164;5.518;2023-10-19T05:45:38;16.90;73.50
21540;DHT22;10931;52.164;5.518;2023-10-19T05:51:40;16.90;73.50
21540;DHT22;10931;52.164;5.518;2023-10-19T05:54:22;16.90;73.60
21540;DHT22;10931;52.164;5.518;2023-10-19T05:56:57;16.90;73.50
21540;DHT22;10931;52.164;5.518;2023-10-19T05:59:38;16.90;73.50
21540;DHT22;10931;52.164;5.518;2023-10-19T06:02:10;16.90;73.50
21540;DHT22;10931;52.164;5.518;2023-10-19T06:05:09;16.90;73.50
21540;DHT22;10931;52.164;5.518;2023-10-19T06:11:08;16.90;73.60
21540;DHT22;10931;52.164;5.518;2023-10-19T06:17:11;16.90;73.50
21540;DHT22;10931;52.164;5.518;2023-10-19T06:19:58;16.90;72.40
21540;DHT22;10931;52.164;5.518;2023-10-19T06:25:07;16.90;73.50
21540;DHT22;10931;52.164;5.518;2023-10-19T06:27:33;16.90;73.60
21540;DHT22;10931;52.164;5.518;2023-10-19T06:30:04;16.90;73.60
21540;DHT22;10931;52.164;5.518;2023-10-19T06:32:31;16.90;73.60
21540;DHT22;10931;52.164;5.518;2023-10-19T06:34:57;16.90;73.50
21540;DHT22;10931;52.164;5.518;2023-10-19T06:37:37;16.90;73.50
21540;DHT22;10931;52.164;5.518;2023-10-19T06:40:03;16.90;73.60
21540;DHT22;10931;52.164;5.518;2023-10-19T06:42:39;16.90;73.50
21540;DHT22;10931;52.164;5.518;2023-10-19T06:45:05;16.90;73.50
21540;DHT22;10931;52.164;5.518;2023-10-19T06:47:49;16.90;73.50
21540;DHT22;10931;52.164;5.518;2023-10-19T06:50:22;16.90;73.60
21540;DHT22;10931;52.164;5.518;2023-10-19T06:52:51;16.90;73.60
21540;DHT22;10931;52.164;5.518;2023-10-19T06:55:45;16.90;73.60
21540;DHT22;10931;52.164;5.518;2023-10-19T07:01:20;16.90;73.60
21540;DHT22;10931;52.164;5.518;2023-10-19T07:04:07;16.90;73.60
21540;DHT22;10931;52.164;5.518;2023-10-19T07:06:57;16.90;73.60
21540;DHT22;10931;52.164;5.518;2023-10-19T07:10:14;16.90;73.60
21540;DHT22;10931;52.164;5.518;2023-10-19T07:13:04;16.90;73.60
21540;DHT22;10931;52.164;5.518;2023-10-19T07:59:06;16.90;73.70
21540;DHT22;10931;52.164;5.518;2023-10-19T08:01:50;16.90;73.70
21540;DHT22;10931;52.164;5.518;2023-10-19T08:04:23;16.90;73.70
21540;DHT22;10931;52.164;5.518;2023-10-19T08:09:24;16.90;73.70
21540;DHT22;10931;52.164;5.518;2023-10-19T08:11:54;16.90;73.70
21540;DHT22;10931;52.164;5.518;2023-10-19T08:14:27;16.90;73.70
21540;DHT22;10931;52.164;5.518;2023-10-19T08:17:34;16.90;73.70
21540;DHT22;10931;52.164;5.518;2023-10-19T08:22:58;17.00;73.70
21540;DHT22;10931;52.164;5.518;2023-10-19T08:26:10;17.00;73.70
21540;DHT22;10931;52.164;5.518;2023-10-19T08:29:06;16.90;73.70
21540;DHT22;10931;52.164;5.518;2023-10-19T08:34:13;17.00;73.80
21540;DHT22;10931;52.164;5.518;2023-10-19T08:36:45;17.00;73.80
21540;DHT22;10931;52.164;5.518;2023-10-19T08:43:07;17.00;73.70
21540;DHT22;10931;52.164;5.518;2023-10-19T08:45:52;17.00;73.80
21540;DHT22;10931;52.164;5.518;2023-10-19T08:48:32;17.00;73.80
21540;DHT22;10931;52.164;5.518;2023-10-19T08:51:08;17.00;73.80
21540;DHT22;10931;52.164;5.518;2023-10-19T08:53:50;17.00;73.80
21540;DHT22;10931;52.164;5.518;2023-10-19T08:56:42;17.00;73.80
21540;DHT22;10931;52.164;5.518;2023-10-19T08:59:21;17.00;73.80
21540;DHT22;10931;52.164;5.518;2023-10-19T09:02:05;17.00;73.80
21540;DHT22;10931;52.164;5.518;2023-10-19T09:04:40;17.00;73.80
21540;DHT22;10931;52.164;5.518;2023-10-19T09:07:28;17.00;73.80
21540;DHT22;10931;52.164;5.518;2023-10-19T09:13:45;17.00;73.90
21540;DHT22;10931;52.164;5.518;2023-10-19T09:16:54;17.00;73.90
21540;DHT22;10931;52.164;5.518;2023-10-19T09:19:43;17.00;73.90
21540;DHT22;10931;52.164;5.518;2023-10-19T09:23:16;17.00;74.60
21540;DHT22;10931;52.164;5.518;2023-10-19T09:25:30;17.00;73.90
21540;DHT22;10931;52.164;5.518;2023-10-19T09:28:00;17.00;73.90
21540;DHT22;10931;52.164;5.518;2023-10-19T09:30:29;17.00;73.90
21540;DHT22;10931;52.164;5.518;2023-10-19T09:33:01;17.00;73.90
21540;DHT22;10931;52.164;5.518;2023-10-19T09:35:33;17.10;74.70
21540;DHT22;10931;52.164;5.518;2023-10-19T09:38:04;17.10;74.00
21540;DHT22;10931;52.164;5.518;2023-10-19T09:40:41;17.10;74.00
21540;DHT22;10931;52.164;5.518;2023-10-19T09:43:44;17.10;74.00
21540;DHT22;10931;52.164;5.518;2023-10-19T09:46:44;17.10;74.00
21540;DHT22;10931;52.164;5.518;2023-10-19T09:49:20;17.10;74.00
21540;DHT22;10931;52.164;5.518;2023-10-19T09:52:05;17.10;74.00
21540;DHT22;10931;52.164;5.518;2023-10-19T10:00:49;17.10;74.00
21540;DHT22;10931;52.164;5.518;2023-10-19T10:06:57;17.10;74.10
21540;DHT22;10931;52.164;5.518;2023-10-19T10:09:37;17.10;74.00
21540;DHT22;10931;52.164;5.518;2023-10-19T10:12:28;17.10;74.00
21540;DHT22;10931;52.164;5.518;2023-10-19T10:15:12;17.20;74.10
21540;DHT22;10931;52.164;5.518;2023-10-19T10:18:11;17.10;74.00
21540;DHT22;10931;52.164;5.518;2023-10-19T10:20:43;17.20;74.10
21540;DHT22;10931;52.164;5.518;2023-10-19T10:26:31;17.20;74.10
21540;DHT22;10931;52.164;5.518;2023-10-19T10:38:36;17.20;74.20
21540;DHT22;10931;52.164;5.518;2023-10-19T10:41:20;17.20;74.20
21540;DHT22;10931;52.164;5.518;2023-10-19T10:51:25;17.20;74.20
21540;DHT22;10931;52.164;5.518;2023-10-19T10:54:11;17.20;74.30
21540;DHT22;10931;52.164;5.518;2023-10-19T10:56:55;17.30;74.30
21540;DHT22;10931;52.164;5.518;2023-10-19T11:03:12;17.30;74.30
21540;DHT22;10931;52.164;5.518;2023-10-19T11:06:10;17.30;74.30
21540;DHT22;10931;52.164;5.518;2023-10-19T11:09:18;17.30;74.30
21540;DHT22;10931;52.164;5.518;2023-10-19T11:11:57;17.30;74.30
21540;DHT22;10931;52.164;5.518;2023-10-19T11:15:20;17.30;74.30
21540;DHT22;10931;52.164;5.518;2023-10-19T11:17:47;17.30;74.30
21540;DHT22;10931;52.164;5.518;2023-10-19T11:20:28;17.40;74.50
21540;DHT22;10931;52.164;5.518;2023-10-19T11:23:00;17.30;74.40
21540;DHT22;10931;52.164;5.518;2023-10-19T11:25:34;17.40;74.50
21540;DHT22;10931;52.164;5.518;2023-10-19T11:28:23;17.40;74.50
21540;DHT22;10931;52.164;5.518;2023-10-19T11:31:00;17.40;74.50
21540;DHT22;10931;52.164;5.518;2023-10-19T11:33:46;17.40;74.50
21540;DHT22;10931;52.164;5.518;2023-10-19T11:40:39;17.40;74.50
21540;DHT22;10931;52.164;5.518;2023-10-19T11:50:51;17.50;74.60
21540;DHT22;10931;52.164;5.518;2023-10-19T11:57:24;17.50;74.60
21540;DHT22;10931;52.164;5.518;2023-10-19T12:00:33;17.50;74.60
21540;DHT22;10931;52.164;5.518;2023-10-19T12:03:12;17.60;74.60
21540;DHT22;10931;52.164;5.518;2023-10-19T12:05:44;17.60;74.60
21540;DHT22;10931;52.164;5.518;2023-10-19T12:08:21;17.60;74.60
21540;DHT22;10931;52.164;5.518;2023-10-19T12:11:02;17.60;74.60
21540;DHT22;10931;52.164;5.518;2023-10-19T12:13:47;17.60;74.60
21540;DHT22;10931;52.164;5.518;2023-10-19T12:16:17;17.60;74.60
21540;DHT22;10931;52.164;5.518;2023-10-19T12:18:49;17.60;74.60
21540;DHT22;10931;52.164;5.518;2023-10-19T12:21:17;17.60;74.70
21540;DHT22;10931;52.164;5.518;2023-10-19T12:23:44;17.70;74.70
21540;DHT22;10931;52.164;5.518;2023-10-19T12:26:20;17.70;74.70
21540;DHT22;10931;52.164;5.518;2023-10-19T12:28:45;17.70;74.70
21540;DHT22;10931;52.164;5.518;2023-10-19T12:31:13;17.70;74.70
21540;DHT22;10931;52.164;5.518;2023-10-19T12:33:43;17.70;74.70
21540;DHT22;10931;52.164;5.518;2023-10-19T12:36:11;17.70;74.70
21540;DHT22;10931;52.164;5.518;2023-10-19T12:39:01;17.70;74.70
21540;DHT22;10931;52.164;5.518;2023-10-19T12:41:27;17.70;74.70
21540;DHT22;10931;52.164;5.518;2023-10-19T12:44:01;17.70;74.70
21540;DHT22;10931;52.164;5.518;2023-10-19T12:46:37;17.70;74.70
21540;DHT22;10931;52.164;5.518;2023-10-19T12:52:20;17.80;74.80
21540;DHT22;10931;52.164;5.518;2023-10-19T12:54:57;17.80;74.80
21540;DHT22;10931;52.164;5.518;2023-10-19T12:57:26;17.80;74.80
21540;DHT22;10931;52.164;5.518;2023-10-19T13:00:00;17.90;74.90
21540;DHT22;10931;52.164;5.518;2023-10-19T13:02:52;17.90;74.90
21540;DHT22;10931;52.164;5.518;2023-10-19T13:05:27;17.90;74.90
21540;DHT22;10931;52.164;5.518;2023-10-19T13:07:54;17.80;74.80
21540;DHT22;10931;52.164;5.518;2023-10-19T13:10:30;17.90;74.90
21540;DHT22;10931;52.164;5.518;2023-10-19T13:13:25;17.90;74.90
21540;DHT22;10931;52.164;5.518;2023-10-19T13:15:54;17.90;74.90
21540;DHT22;10931;52.164;5.518;2023-10-19T13:18:29;17.90;74.90
21540;DHT22;10931;52.164;5.518;2023-10-19T13:20:55;17.90;74.90
21540;DHT22;10931;52.164;5.518;2023-10-19T13:23:25;18.00;75.00
21540;DHT22;10931;52.164;5.518;2023-10-19T13:26:03;18.00;75.00
21540;DHT22;10931;52.164;5.518;2023-10-19T13:28:32;17.90;75.70
21540;DHT22;10931;52.164;5.518;2023-10-19T13:31:00;18.00;75.00
21540;DHT22;10931;52.164;5.518;2023-10-19T13:33:31;18.00;75.00
21540;DHT22;10931;52.164;5.518;2023-10-19T13:35:57;18.00;75.00
21540;DHT22;10931;52.164;5.518;2023-10-19T13:38:34;18.00;75.00
21540;DHT22;10931;52.164;5.518;2023-10-19T13:41:06;18.00;75.00
21540;DHT22;10931;52.164;5.518;2023-10-19T13:43:55;18.00;75.00
21540;DHT22;10931;52.164;5.518;2023-10-19T13:46:23;18.00;75.00
21540;DHT22;10931;52.164;5.518;2023-10-19T13:48:53;18.00;75.00
21540;DHT22;10931;52.164;5.518;2023-10-19T13:51:23;18.10;75.10
21540;DHT22;10931;52.164;5.518;2023-10-19T13:54:08;18.00;75.00
21540;DHT22;10931;52.164;5.518;2023-10-19T13:56:34;18.00;75.00
21540;DHT22;10931;52.164;5.518;2023-10-19T13:59:04;18.10;75.00
21540;DHT22;10931;52.164;5.518;2023-10-19T14:01:30;18.10;75.00
21540;DHT22;10931;52.164;5.518;2023-10-19T14:04:04;18.10;75.10
21540;DHT22;10931;52.164;5.518;2023-10-19T14:06:35;18.10;75.00
21540;DHT22;10931;52.164;5.518;2023-10-19T14:09:07;18.10;75.00
21540;DHT22;10931;52.164;5.518;2023-10-19T14:11:38;18.10;75.00
21540;DHT22;10931;52.164;5.518;2023-10-19T14:17:55;18.20;75.20
21540;DHT22;10931;52.164;5.518;2023-10-19T14:20:36;18.20;75.10
21540;DHT22;10931;52.164;5.518;2023-10-19T14:24:01;18.20;75.10
21540;DHT22;10931;52.164;5.518;2023-10-19T14:34:02;18.20;75.20
21540;DHT22;10931;52.164;5.518;2023-10-19T14:36:36;18.20;75.10
21540;DHT22;10931;52.164;5.518;2023-10-19T14:39:22;18.30;75.20
21540;DHT22;10931;52.164;5.518;2023-10-19T14:41:52;18.20;75.20
21540;DHT22;10931;52.164;5.518;2023-10-19T14:44:43;18.30;75.20
21540;DHT22;10931;52.164;5.518;2023-10-19T14:47:19;18.20;75.20
21540;DHT22;10931;52.164;5.518;2023-10-19T14:49:50;18.30;75.20
21540;DHT22;10931;52.164;5.518;2023-10-19T14:52:23;18.30;75.20
21540;DHT22;10931;52.164;5.518;2023-10-19T14:55:02;18.30;75.20
21540;DHT22;10931;52.164;5.518;2023-10-19T14:57:28;18.30;75.20
21540;DHT22;10931;52.164;5.518;2023-10-19T15:00:01;18.30;75.20
21540;DHT22;10931;52.164;5.518;2023-10-19T15:03:01;18.30;75.20
21540;DHT22;10931;52.164;5.518;2023-10-19T15:05:34;18.30;75.20
21540;DHT22;10931;52.164;5.518;2023-10-19T15:08:03;18.30;75.20
21540;DHT22;10931;52.164;5.518;2023-10-19T15:10:52;18.30;75.20
21540;DHT22;10931;52.164;5.518;2023-10-19T15:13:39;18.30;75.20
21540;DHT22;10931;52.164;5.518;2023-10-19T15:16:13;18.30;75.20
21540;DHT22;10931;52.164;5.518;2023-10-19T15:18:45;18.30;75.20
21540;DHT22;10931;52.164;5.518;2023-10-19T15:21:34;18.40;75.30
21540;DHT22;10931;52.164;5.518;2023-10-19T15:24:05;18.40;75.20
21540;DHT22;10931;52.164;5.518;2023-10-19T15:26:49;18.40;75.20
21540;DHT22;10931;52.164;5.518;2023-10-19T15:29:39;18.40;75.20
21540;DHT22;10931;52.164;5.518;2023-10-19T15:32:07;18.40;75.30
21540;DHT22;10931;52.164;5.518;2023-10-19T15:34:33;18.40;75.20
21540;DHT22;10931;52.164;5.518;2023-10-19T15:36:59;18.40;75.20
21540;DHT22;10931;52.164;5.518;2023-10-19T15:39:35;18.40;75.20
21540;DHT22;10931;52.164;5.518;2023-10-19T15:45:57;18.40;75.20
21540;DHT22;10931;52.164;5.518;2023-10-19T15:48:57;18.40;75.20
21540;DHT22;10931;52.164;5.518;2023-10-19T15:51:49;18.50;75.30
21540;DHT22;10931;52.164;5.518;2023-10-19T15:54:32;18.50;75.30
21540;DHT22;10931;52.164;5.518;2023-10-19T15:57:09;18.50;75.30
21540;DHT22;10931;52.164;5.518;2023-10-19T15:59:35;18.50;75.30
21540;DHT22;10931;52.164;5.518;2023-10-19T16:02:10;18.50;75.30
21540;DHT22;10931;52.164;5.518;2023-10-19T16:07:13;18.50;75.30
21540;DHT22;10931;52.164;5.518;2023-10-19T16:09:40;18.50;75.30
21540;DHT22;10931;52.164;5.518;2023-10-19T16:12:10;18.50;75.30
21540;DHT22;10931;52.164;5.518;2023-10-19T16:15:00;18.50;75.30
21540;DHT22;10931;52.164;5.518;2023-10-19T16:17:49;18.50;75.30
21540;DHT22;10931;52.164;5.518;2023-10-19T16:58:29;18.50;75.30
21540;DHT22;10931;52.164;5.518;2023-10-19T17:21:13;18.60;75.40
21540;DHT22;10931;52.164;5.518;2023-10-19T17:23:52;18.60;75.30
21540;DHT22;10931;52.164;5.518;2023-10-19T17:29:54;18.60;75.30
21540;DHT22;10931;52.164;5.518;2023-10-19T17:32:40;18.60;75.40
21540;DHT22;10931;52.164;5.518;2023-10-19T17:35:26;18.60;75.30
21540;DHT22;10931;52.164;5.518;2023-10-19T17:38:05;18.60;75.40
21540;DHT22;10931;52.164;5.518;2023-10-19T17:40:54;18.60;75.40
21540;DHT22;10931;52.164;5.518;2023-10-19T17:43:39;18.60;75.40
21540;DHT22;10931;52.164;5.518;2023-10-19T17:46:08;18.60;75.40
21540;DHT22;10931;52.164;5.518;2023-10-19T17:48:52;18.70;75.50
21540;DHT22;10931;52.164;5.518;2023-10-19T17:51:23;18.60;75.40
21540;DHT22;10931;52.164;5.518;2023-10-19T17:54:14;18.60;75.40
21540;DHT22;10931;52.164;5.518;2023-10-19T17:56:46;18.60;75.40
21540;DHT22;10931;52.164;5.518;2023-10-19T17:59:23;18.60;75.40
21540;DHT22;10931;52.164;5.518;2023-10-19T18:02:24;18.60;75.40
21540;DHT22;10931;52.164;5.518;2023-10-19T18:23:47;18.70;75.50
21540;DHT22;10931;52.164;5.518;2023-10-19T18:26:38;18.70;75.50
21540;DHT22;10931;52.164;5.518;2023-10-19T18:29:07;18.70;75.50
21540;DHT22;10931;52.164;5.518;2023-10-19T18:31:41;18.70;75.50
21540;DHT22;10931;52.164;5.518;2023-10-19T18:34:06;18.70;75.50
21540;DHT22;10931;52.164;5.518;2023-10-19T18:36:37;18.70;75.50
21540;DHT22;10931;52.164;5.518;2023-10-19T18:39:24;18.70;75.50
21540;DHT22;10931;52.164;5.518;2023-10-19T18:42:27;18.70;75.50
21540;DHT22;10931;52.164;5.518;2023-10-19T18:55:28;18.70;75.50
21540;DHT22;10931;52.164;5.518;2023-10-19T18:58:27;18.70;75.50
21540;DHT22;10931;52.164;5.518;2023-10-19T19:13:36;18.70;75.50
21540;DHT22;10931;52.164;5.518;2023-10-19T20:06:24;18.70;75.50
21540;DHT22;10931;52.164;5.518;2023-10-19T20:25:07;18.70;75.50
21540;DHT22;10931;52.164;5.518;2023-10-19T20:38:12;18.80;75.50
21540;DHT22;10931;52.164;5.518;2023-10-19T20:44:32;18.70;75.50
21540;DHT22;10931;52.164;5.518;2023-10-19T20:47:06;18.70;75.50
21540;DHT22;10931;52.164;5.518;2023-10-19T20:53:23;18.80;75.50
21540;DHT22;10931;52.164;5.518;2023-10-19T21:03:24;18.80;75.60
21540;DHT22;10931;52.164;5.518;2023-10-19T21:06:42;18.70;75.50
21540;DHT22;10931;52.164;5.518;2023-10-19T21:12:32;18.70;75.50
21540;DHT22;10931;52.164;5.518;2023-10-19T21:15:17;18.80;75.50
21540;DHT22;10931;52.164;5.518;2023-10-19T21:17:56;18.80;75.50
21540;DHT22;10931;52.164;5.518;2023-10-19T21:20:25;18.80;75.50
21540;DHT22;10931;52.164;5.518;2023-10-19T21:22:52;18.80;75.60
21540;DHT22;10931;52.164;5.518;2023-10-19T21:25:21;18.80;75.50
21540;DHT22;10931;52.164;5.518;2023-10-19T21:27:53;18.80;75.60
21540;DHT22;10931;52.164;5.518;2023-10-19T21:30:21;18.80;75.60
21540;DHT22;10931;52.164;5.518;2023-10-19T21:32:52;18.80;75.60
21540;DHT22;10931;52.164;5.518;2023-10-19T21:36:03;18.80;75.60
21540;DHT22;10931;52.164;5.518;2023-10-19T21:38:37;18.80;75.60
21540;DHT22;10931;52.164;5.518;2023-10-19T21:41:21;18.80;75.50
21540;DHT22;10931;52.164;5.518;2023-10-19T21:43:51;18.80;75.60
21540;DHT22;10931;52.164;5.518;2023-10-19T21:52:36;18.80;75.60
21540;DHT22;10931;52.164;5.518;2023-10-19T21:55:35;18.80;75.50
21540;DHT22;10931;52.164;5.518;2023-10-19T22:00:56;18.80;75.60
21540;DHT22;10931;52.164;5.518;2023-10-19T22:03:26;18.80;75.60
21540;DHT22;10931;52.164;5.518;2023-10-19T22:05:54;18.80;75.60
21540;DHT22;10931;52.164;5.518;2023-10-19T22:08:30;18.80;75.60
21540;DHT22;10931;52.164;5.518;2023-10-19T22:14:29;18.80;75.60
21540;DHT22;10931;52.164;5.518;2023-10-19T22:23:57;18.80;75.60
21540;DHT22;10931;52.164;5.518;2023-10-19T22:26:42;18.80;75.60
21540;DHT22;10931;52.164;5.518;2023-10-19T22:29:24;18.80;75.60
21540;DHT22;10931;52.164;5.518;2023-10-19T22:37:03;18.80;75.70
21540;DHT22;10931;52.164;5.518;2023-10-19T22:55:46;18.80;75.70
21540;DHT22;10931;52.164;5.518;2023-10-19T22:58:17;18.80;75.70
21540;DHT22;10931;52.164;5.518;2023-10-19T23:04:28;18.80;75.70
21540;DHT22;10931;52.164;5.518;2023-10-19T23:07:42;18.80;75.70
21540;DHT22;10931;52.164;5.518;2023-10-19T23:12:58;18.80;75.70
21540;DHT22;10931;52.164;5.518;2023-10-19T23:16:04;18.80;75.70
21540;DHT22;10931;52.164;5.518;2023-10-19T23:18:40;18.80;75.70
21540;DHT22;10931;52.164;5.518;2023-10-19T23:27:24;18.80;75.70
21540;DHT22;10931;52.164;5.518;2023-10-19T23:34:11;18.80;75.80
21540;DHT22;10931;52.164;5.518;2023-10-19T23:37:01;18.80;75.70
21540;DHT22;10931;52.164;5.518;2023-10-19T23:39:54;18.80;75.80
21540;DHT22;10931;52.164;5.518;2023-10-19T23:48:36;18.80;75.80
21540;DHT22;10931;52.164;5.518;2023-10-19T23:51:43;18.80;75.80
21540;DHT22;10931;52.164;5.518;2023-10-19T23:58:07;18.80;75.80
